createdAt,value
2022-11-27T00:00:29.295Z,88.90
2022-11-27T00:03:32.007Z,89.35
2022-11-27T00:06:36.771Z,89.08
2022-11-27T00:09:39.842Z,89.25
2022-11-27T00:12:42.900Z,89.09
2022-11-27T00:15:45.602Z,88.68
2022-11-27T00:18:48.256Z,89.08
2022-11-27T00:21:52.305Z,88.60
2022-11-27T00:24:55.231Z,88.82
2022-11-27T00:27:57.896Z,89.52
2022-11-27T00:31:01.017Z,89.19
2022-11-27T00:34:07.751Z,89.34
2022-11-27T00:37:12.215Z,89.19
2022-11-27T00:40:15.548Z,88.61
2022-11-27T00:43:18.211Z,88.45
2022-11-27T00:46:27.824Z,88.02
2022-11-27T00:49:32.177Z,88.20
2022-11-27T00:52:36.207Z,89.07
2022-11-27T00:55:38.975Z,88.80
2022-11-27T00:58:41.571Z,88.94
2022-11-27T01:01:45.029Z,88.78
2022-11-27T01:04:48.022Z,88.63
2022-11-27T01:07:52.129Z,88.53
2022-11-27T01:10:56.570Z,87.84
2022-11-27T01:14:01.421Z,88.04
2022-11-27T01:17:04.748Z,89.28
2022-11-27T01:20:08.771Z,88.86
2022-11-27T01:23:12.775Z,89.60
2022-11-27T01:26:15.549Z,89.10
2022-11-27T01:29:18.199Z,88.48
2022-11-27T01:32:20.751Z,88.28
2022-11-27T01:35:23.399Z,88.80
2022-11-27T01:38:28.163Z,88.67
2022-11-27T01:41:32.376Z,89.05
2022-11-27T01:44:50.290Z,88.82
2022-11-27T01:47:55.026Z,88.39
2022-11-27T01:50:57.731Z,88.66
2022-11-27T01:54:01.860Z,88.16
2022-11-27T01:57:08.200Z,88.76
2022-11-27T02:00:14.103Z,89.27
2022-11-27T02:03:16.988Z,88.82
2022-11-27T02:06:19.823Z,88.57
2022-11-27T02:09:23.852Z,88.71
2022-11-27T02:12:28.383Z,88.90
2022-11-27T02:15:36.444Z,88.96
2022-11-27T02:18:43.706Z,88.53
2022-11-27T02:21:49.474Z,88.84
2022-11-27T02:24:57.742Z,88.57
2022-11-27T02:28:14.651Z,88.69
2022-11-27T02:31:23.739Z,88.42
2022-11-27T02:34:29.366Z,88.68
2022-11-27T02:37:35.010Z,88.63
2022-11-27T02:40:40.244Z,88.83
2022-11-27T02:43:46.239Z,88.63
2022-11-27T02:46:50.996Z,88.50
2022-11-27T02:49:57.013Z,88.49
2022-11-27T02:53:02.863Z,88.77
2022-11-27T02:56:08.193Z,88.51
2022-11-27T02:59:13.349Z,88.65
2022-11-27T03:02:20.114Z,88.00
2022-11-27T03:05:24.495Z,88.67
2022-11-27T03:08:32.081Z,88.54
2022-11-27T03:11:35.069Z,88.80
2022-11-27T03:14:38.890Z,88.75
2022-11-27T03:17:53.182Z,88.61
2022-11-27T03:21:02.255Z,88.20
2022-11-27T03:24:05.624Z,88.07
2022-11-27T03:27:08.385Z,88.94
2022-11-27T03:30:12.267Z,89.28
2022-11-27T03:33:16.142Z,88.78
2022-11-27T03:36:20.668Z,88.58
2022-11-27T03:39:23.738Z,88.87
2022-11-27T03:42:30.421Z,88.85
2022-11-27T03:45:36.753Z,89.04
2022-11-27T03:48:44.990Z,89.00
2022-11-27T03:51:52.521Z,89.11
2022-11-27T03:55:00.878Z,88.20
2022-11-27T03:58:06.784Z,88.42
2022-11-27T04:01:11.774Z,88.93
2022-11-27T04:04:15.995Z,89.12
2022-11-27T04:07:18.727Z,88.80
2022-11-27T04:10:21.392Z,88.02
2022-11-27T04:13:24.025Z,88.29
2022-11-27T04:16:26.734Z,87.95
2022-11-27T04:19:30.725Z,88.62
2022-11-27T04:22:33.136Z,88.39
2022-11-27T04:25:35.890Z,88.29
2022-11-27T04:28:38.619Z,88.49
2022-11-27T04:31:41.292Z,88.22
2022-11-27T04:34:45.505Z,88.42
2022-11-27T04:37:48.111Z,88.21
2022-11-27T04:40:52.591Z,89.04
2022-11-27T04:43:55.289Z,88.99
2022-11-27T04:46:58.006Z,88.24
2022-11-27T04:50:02.640Z,88.68
2022-11-27T04:53:05.367Z,88.43
2022-11-27T04:56:08.429Z,88.22
2022-11-27T04:59:11.005Z,88.16
2022-11-27T05:02:13.534Z,88.25
2022-11-27T05:05:20.253Z,88.24
2022-11-27T05:08:22.983Z,88.37
2022-11-27T05:11:25.582Z,88.40
2022-11-27T05:14:29.384Z,88.18
2022-11-27T05:17:31.951Z,88.18
2022-11-27T05:20:36.006Z,88.46
2022-11-27T05:23:38.635Z,88.42
2022-11-27T05:26:41.391Z,88.66
2022-11-27T05:29:43.957Z,89.10
2022-11-27T05:32:46.620Z,89.12
2022-11-27T05:35:50.491Z,88.83
2022-11-27T05:38:52.960Z,88.53
2022-11-27T05:41:55.526Z,88.71
2022-11-27T05:44:58.722Z,88.87
2022-11-27T05:48:01.396Z,88.15
2022-11-27T05:51:06.066Z,88.31
2022-11-27T05:54:08.727Z,88.43
2022-11-27T05:57:11.616Z,88.97
2022-11-27T06:00:15.670Z,88.57
2022-11-27T06:03:18.632Z,88.29
2022-11-27T06:06:22.757Z,88.45
2022-11-27T06:09:25.737Z,88.83
2022-11-27T06:12:28.438Z,88.66
2022-11-27T06:15:31.102Z,88.40
2022-11-27T06:18:33.736Z,88.24
2022-11-27T06:21:38.111Z,88.37
2022-11-27T06:24:41.079Z,87.97
2022-11-27T06:27:44.088Z,88.07
2022-11-27T06:30:46.672Z,88.67
2022-11-27T06:33:50.618Z,88.83
2022-11-27T06:36:54.636Z,88.50
2022-11-27T06:39:57.303Z,88.42
2022-11-27T06:42:59.955Z,88.01
2022-11-27T06:46:03.451Z,88.05
2022-11-27T06:49:06.444Z,88.26
2022-11-27T06:52:10.462Z,88.58
2022-11-27T06:55:13.058Z,88.36
2022-11-27T06:58:15.753Z,88.24
2022-11-27T07:01:18.871Z,88.35
2022-11-27T07:04:21.570Z,88.57
2022-11-27T07:07:25.689Z,88.94
2022-11-27T07:10:28.398Z,88.69
2022-11-27T07:13:31.232Z,88.76
2022-11-27T07:16:35.962Z,88.78
2022-11-27T07:19:38.694Z,89.19
2022-11-27T07:22:43.174Z,89.41
2022-11-27T07:25:45.891Z,89.40
2022-11-27T07:28:48.851Z,89.20
2022-11-27T07:31:51.854Z,89.15
2022-11-27T07:34:54.565Z,88.66
2022-11-27T07:37:58.714Z,89.51
2022-11-27T07:41:02.045Z,89.49
2022-11-27T07:44:04.922Z,88.82
2022-11-27T07:47:07.682Z,88.88
2022-11-27T07:50:11.694Z,88.69
2022-11-27T07:53:15.777Z,88.36
2022-11-27T07:56:19.180Z,88.07
2022-11-27T07:59:21.956Z,88.35
2022-11-27T08:02:24.692Z,88.33
2022-11-27T08:05:27.400Z,87.78
2022-11-27T08:08:31.324Z,88.47
2022-11-27T08:11:35.201Z,88.54
2022-11-27T08:14:38.316Z,88.68
2022-11-27T08:17:41.318Z,88.90
2022-11-27T08:20:43.948Z,88.77
2022-11-27T08:23:48.034Z,88.55
2022-11-27T08:26:52.141Z,88.56
2022-11-27T08:29:54.901Z,88.59
2022-11-27T08:32:57.509Z,88.52
2022-11-27T08:36:00.690Z,88.43
2022-11-27T08:39:04.855Z,88.02
2022-11-27T08:42:07.505Z,88.27
2022-11-27T08:45:11.620Z,89.19
2022-11-27T08:48:14.168Z,87.48
2022-11-27T08:51:17.406Z,88.27
2022-11-27T08:54:21.477Z,88.29
2022-11-27T08:57:24.480Z,88.81
2022-11-27T09:00:28.230Z,89.65
2022-11-27T09:03:30.882Z,90.12
2022-11-27T09:06:34.887Z,88.58
2022-11-27T09:09:38.944Z,88.72
2022-11-27T09:12:43.567Z,88.70
2022-11-27T09:15:46.334Z,88.75
2022-11-27T09:18:51.390Z,83.43
2022-11-27T09:21:54.064Z,85.12
2022-11-27T09:24:58.235Z,83.99
2022-11-27T09:28:01.011Z,83.07
2022-11-27T09:31:08.279Z,81.50
2022-11-27T09:34:11.961Z,83.77
2022-11-27T09:37:14.594Z,84.02
2022-11-27T09:40:18.800Z,81.07
2022-11-27T09:43:28.145Z,79.93
2022-11-27T09:46:33.317Z,75.52
2022-11-27T09:49:39.350Z,77.27
2022-11-27T09:52:44.273Z,80.75
2022-11-27T09:55:51.111Z,81.01
2022-11-27T09:58:57.419Z,81.13
2022-11-27T10:02:00.208Z,80.85
2022-11-27T10:05:13.998Z,78.84
2022-11-27T10:08:31.408Z,80.24
2022-11-27T10:11:37.693Z,80.40
2022-11-27T10:15:00.753Z,79.25
2022-11-27T10:18:07.292Z,78.67
2022-11-27T10:21:16.671Z,78.30
2022-11-27T10:24:24.509Z,78.02
2022-11-27T10:27:34.230Z,77.78
2022-11-27T10:30:40.445Z,79.13
2022-11-27T10:33:45.095Z,79.71
2022-11-27T10:37:24.864Z,79.53
2022-11-27T10:40:31.933Z,78.25
2022-11-27T10:43:36.084Z,78.86
2022-11-27T10:46:40.339Z,79.47
2022-11-27T10:49:43.682Z,78.37
2022-11-27T10:52:52.472Z,78.04
2022-11-27T10:56:03.092Z,77.08
2022-11-27T10:59:10.537Z,77.28
2022-11-27T11:02:31.352Z,76.21
2022-11-27T11:06:04.134Z,76.71
2022-11-27T11:09:03.000Z,74.80
2022-11-27T11:12:09.138Z,74.53
2022-11-27T11:15:14.564Z,75.98
2022-11-27T11:18:18.587Z,73.70
2022-11-27T11:21:27.494Z,74.35
2022-11-27T11:24:31.389Z,72.73
2022-11-27T11:27:34.030Z,72.26
2022-11-27T11:30:39.522Z,70.14
2022-11-27T11:33:51.236Z,68.37
2022-11-27T11:36:57.844Z,68.59
2022-11-27T11:40:02.244Z,67.18
2022-11-27T11:43:10.111Z,68.06
2022-11-27T11:46:22.576Z,67.92
2022-11-27T11:49:26.295Z,69.32
2022-11-27T11:52:39.368Z,69.72
2022-11-27T11:55:46.889Z,65.81
2022-11-27T11:58:56.485Z,65.14
2022-11-27T12:02:18.191Z,64.87
2022-11-27T12:05:26.815Z,58.59
2022-11-27T12:08:40.809Z,54.68
2022-11-27T12:11:44.568Z,55.53
2022-11-27T12:14:51.905Z,56.69
2022-11-27T12:18:01.028Z,53.99
2022-11-27T12:21:12.638Z,54.58
2022-11-27T12:24:24.349Z,55.23
2022-11-27T12:27:34.582Z,54.49
2022-11-27T12:30:43.236Z,54.88
2022-11-27T12:33:58.494Z,55.50
2022-11-27T12:37:14.108Z,54.53
2022-11-27T12:40:30.297Z,54.66
2022-11-27T12:43:35.507Z,54.54
2022-11-27T12:46:44.334Z,52.70
2022-11-27T12:49:49.988Z,49.34
2022-11-27T12:53:00.145Z,48.49
2022-11-27T12:56:09.661Z,46.01
2022-11-27T12:59:15.614Z,40.51
2022-11-27T13:02:28.396Z,36.13
2022-11-27T13:05:35.956Z,34.62
2022-11-27T13:08:51.008Z,35.33
2022-11-27T13:11:55.559Z,35.98
2022-11-27T13:15:02.629Z,34.73
2022-11-27T13:18:13.370Z,35.62
2022-11-27T13:21:22.759Z,36.08
2022-11-27T13:24:27.227Z,37.02
2022-11-27T13:27:31.429Z,39.01
2022-11-27T13:30:37.053Z,40.96
2022-11-27T13:33:42.108Z,44.28
2022-11-27T13:36:48.333Z,46.23
2022-11-27T13:39:51.054Z,45.14
2022-11-27T13:42:56.464Z,44.60
2022-11-27T13:46:05.199Z,45.38
2022-11-27T13:49:08.187Z,46.88
2022-11-27T13:52:14.024Z,46.77
2022-11-27T13:55:25.060Z,47.91
2022-11-27T13:58:32.601Z,49.23
2022-11-27T14:01:35.356Z,52.79
2022-11-27T14:04:55.591Z,51.98
2022-11-27T14:08:00.781Z,54.54
2022-11-27T14:11:06.516Z,54.41
2022-11-27T14:14:16.253Z,56.03
2022-11-27T14:17:27.310Z,55.68
2022-11-27T14:20:31.660Z,57.27
2022-11-27T14:23:38.025Z,56.90
2022-11-27T14:26:42.335Z,55.52
2022-11-27T14:29:45.235Z,56.67
2022-11-27T14:32:49.017Z,55.92
2022-11-27T14:35:51.973Z,57.56
2022-11-27T14:38:56.155Z,58.31
2022-11-27T14:42:00.367Z,58.84
2022-11-27T14:45:05.130Z,60.40
2022-11-27T14:48:07.988Z,61.57
2022-11-27T14:51:15.542Z,57.59
2022-11-27T14:54:23.600Z,57.17
2022-11-27T14:57:27.619Z,55.34
2022-11-27T15:00:32.420Z,54.89
2022-11-27T15:03:35.597Z,54.92
2022-11-27T15:06:41.741Z,55.63
2022-11-27T15:09:48.179Z,57.14
2022-11-27T15:12:51.622Z,58.79
2022-11-27T15:15:57.223Z,59.32
2022-11-27T15:19:02.503Z,61.34
2022-11-27T15:22:05.824Z,60.85
2022-11-27T15:25:31.098Z,62.89
2022-11-27T15:28:36.704Z,64.93
2022-11-27T15:31:39.728Z,64.48
2022-11-27T15:34:42.749Z,65.16
2022-11-27T15:37:45.590Z,66.02
2022-11-27T15:40:59.236Z,66.23
2022-11-27T15:44:03.198Z,66.47
2022-11-27T15:47:07.380Z,65.92
2022-11-27T15:50:15.583Z,66.95
2022-11-27T15:53:18.678Z,66.86
2022-11-27T15:56:22.738Z,67.09
2022-11-27T15:59:27.254Z,67.08
2022-11-27T16:02:31.209Z,67.38
2022-11-27T16:05:34.273Z,67.92
2022-11-27T16:08:37.124Z,68.49
2022-11-27T16:11:41.579Z,68.05
2022-11-27T16:14:44.340Z,68.64
2022-11-27T16:17:47.090Z,68.30
2022-11-27T16:20:49.833Z,68.69
2022-11-27T16:23:52.746Z,68.84
2022-11-27T16:26:57.257Z,68.68
2022-11-27T16:29:59.888Z,68.92
2022-11-27T16:33:02.888Z,69.43
2022-11-27T16:36:06.971Z,68.39
2022-11-27T16:39:09.851Z,69.06
2022-11-27T16:42:14.005Z,69.01
2022-11-27T16:45:16.632Z,69.40
2022-11-27T16:48:19.391Z,67.92
2022-11-27T16:51:23.734Z,68.95
2022-11-27T16:54:26.564Z,68.75
2022-11-27T16:57:30.667Z,69.02
2022-11-27T17:00:33.357Z,68.99
2022-11-27T17:03:36.274Z,69.03
2022-11-27T17:06:39.886Z,68.48
2022-11-27T17:09:43.002Z,69.03
2022-11-27T17:12:47.091Z,68.21
2022-11-27T17:15:49.730Z,66.58
2022-11-27T17:18:52.444Z,63.79
2022-11-27T17:21:55.436Z,62.37
2022-11-27T17:24:58.648Z,61.31
2022-11-27T17:28:02.645Z,60.63
2022-11-27T17:31:10.461Z,60.40
2022-11-27T17:34:14.643Z,60.69
2022-11-27T17:37:17.687Z,61.11
2022-11-27T17:40:20.500Z,60.76
2022-11-27T17:43:25.660Z,60.85
2022-11-27T17:46:30.507Z,60.74
2022-11-27T17:49:33.297Z,61.24
2022-11-27T17:52:36.012Z,60.86
2022-11-27T17:55:38.869Z,60.05
2022-11-27T17:58:43.455Z,59.18
2022-11-27T18:01:48.359Z,60.45
2022-11-27T18:04:51.040Z,59.94
2022-11-27T18:07:54.393Z,60.53
2022-11-27T18:10:57.026Z,61.42
2022-11-27T18:14:00.987Z,60.53
2022-11-27T18:17:05.492Z,61.34
2022-11-27T18:20:09.175Z,61.68
2022-11-27T18:23:12.255Z,61.41
2022-11-27T18:26:17.311Z,61.87
2022-11-27T18:29:21.685Z,60.35
2022-11-27T18:32:24.497Z,59.68
2022-11-27T18:35:27.386Z,58.54
2022-11-27T18:38:31.570Z,60.26
2022-11-27T18:41:34.736Z,59.40
2022-11-27T18:44:44.713Z,60.13
2022-11-27T18:47:47.940Z,59.27
2022-11-27T18:50:50.651Z,59.08
2022-11-27T18:53:54.350Z,60.26
2022-11-27T18:56:57.060Z,60.74
2022-11-27T19:00:01.216Z,60.45
2022-11-27T19:03:04.149Z,60.51
2022-11-27T19:06:08.633Z,61.81
2022-11-27T19:09:12.320Z,60.47
2022-11-27T19:12:14.850Z,60.54
2022-11-27T19:15:19.680Z,60.51
2022-11-27T19:18:22.507Z,60.85
2022-11-27T19:21:27.678Z,60.56
2022-11-27T19:24:30.297Z,61.22
2022-11-27T19:27:32.868Z,60.94
2022-11-27T19:30:38.498Z,61.30
2022-11-27T19:33:41.739Z,61.78
2022-11-27T19:36:44.607Z,61.19
2022-11-27T19:39:47.405Z,61.73
2022-11-27T19:42:55.636Z,61.08
2022-11-27T19:46:03.872Z,60.90
2022-11-27T19:49:08.217Z,61.37
2022-11-27T19:52:10.772Z,61.78
2022-11-27T19:55:13.357Z,62.24
2022-11-27T19:58:16.122Z,61.99
2022-11-27T20:01:20.723Z,62.04
2022-11-27T20:04:23.740Z,62.80
2022-11-27T20:07:26.416Z,62.25
2022-11-27T20:10:29.255Z,62.27
2022-11-27T20:13:31.813Z,62.97
2022-11-27T20:16:37.307Z,63.33
2022-11-27T20:19:40.314Z,63.60
2022-11-27T20:22:43.446Z,63.27
2022-11-27T20:25:49.380Z,63.26
2022-11-27T20:28:53.514Z,63.22
2022-11-27T20:31:57.791Z,63.27
2022-11-27T20:35:00.773Z,63.26
2022-11-27T20:38:03.819Z,62.26
2022-11-27T20:41:07.876Z,61.85
2022-11-27T20:44:11.542Z,61.06
2022-11-27T20:47:15.408Z,61.66
2022-11-27T20:50:18.449Z,61.20
2022-11-27T20:53:21.284Z,61.38
2022-11-27T20:56:24.009Z,61.35
2022-11-27T20:59:26.642Z,61.73
2022-11-27T21:02:30.792Z,62.85
2022-11-27T21:05:33.734Z,63.03
2022-11-27T21:08:36.604Z,63.17
2022-11-27T21:11:39.393Z,63.22
2022-11-27T21:14:42.238Z,63.82
2022-11-27T21:17:46.307Z,62.98
2022-11-27T21:20:48.922Z,63.27
2022-11-27T21:23:51.785Z,62.89
2022-11-27T21:26:54.495Z,62.36
2022-11-27T21:29:57.266Z,62.62
2022-11-27T21:33:01.780Z,62.97
2022-11-27T21:36:05.405Z,63.69
2022-11-27T21:39:10.395Z,64.33
2022-11-27T21:42:13.261Z,64.32
2022-11-27T21:45:16.147Z,64.51
2022-11-27T21:48:20.733Z,65.22
2022-11-27T21:51:23.829Z,65.04
2022-11-27T21:54:26.647Z,65.63
2022-11-27T21:57:29.518Z,65.45
2022-11-27T22:00:32.402Z,65.36
2022-11-27T22:03:41.111Z,64.92
2022-11-27T22:06:45.481Z,65.23
2022-11-27T22:09:48.213Z,65.15
2022-11-27T22:12:50.820Z,64.90
2022-11-27T22:15:53.507Z,63.61
2022-11-27T22:18:58.805Z,62.71
2022-11-27T22:22:01.604Z,62.39
2022-11-27T22:25:04.891Z,63.04
2022-11-27T22:28:07.516Z,62.92
2022-11-27T22:31:11.137Z,63.31
2022-11-27T22:34:15.247Z,64.08
2022-11-27T22:37:18.055Z,63.54
2022-11-27T22:40:21.805Z,63.77
2022-11-27T22:43:24.503Z,64.01
2022-11-27T22:46:29.167Z,64.80
2022-11-27T22:49:33.245Z,64.56
2022-11-27T22:52:35.958Z,65.37
2022-11-27T22:55:38.711Z,64.98
2022-11-27T22:58:42.105Z,64.60
2022-11-27T23:01:44.845Z,64.89
2022-11-27T23:04:48.894Z,65.47
2022-11-27T23:07:51.923Z,65.50
2022-11-27T23:10:54.620Z,65.11
2022-11-27T23:13:58.532Z,64.89
2022-11-27T23:17:01.181Z,64.63
2022-11-27T23:20:06.547Z,66.27
2022-11-27T23:23:10.028Z,65.33
2022-11-27T23:26:18.084Z,65.39
2022-11-27T23:29:21.081Z,65.49
2022-11-27T23:32:23.764Z,65.83
2022-11-27T23:35:28.855Z,66.45
2022-11-27T23:38:31.549Z,66.54
2022-11-27T23:41:34.338Z,66.19
2022-11-27T23:44:37.254Z,66.00
2022-11-27T23:47:40.271Z,66.40
2022-11-27T23:50:44.586Z,66.39
2022-11-27T23:53:47.739Z,66.08
2022-11-27T23:56:52.650Z,66.82
2022-11-27T23:59:55.366Z,66.08
